Terminal Aerodrome Forecast
Issued by NWS

Home | Current Version | Previous Version | Text Only | Print | Product List | Glossary On
Versions: 1 2 3 4 5 6 7 8 9 10 11 12 13
000
FTUS43 KICT 241123
TAFCNU
TAF
KCNU 241123Z 2412/2512 29011KT P6SM SCT070
     FM241600 30017G26KT P6SM SCT050
     FM242300 31007KT P6SM SCT100=

USA.gov is the U.S. government's official web portal to all federal, state and local government web resources and services.